Hlavní strana
METAR-TAF:

METAR-TAF

Letiště :

Beja, Portugalsko

zeměpisná šířka: 38-04-40N, zeměpisná délka: 007-55-57W, výška: 193 m

Aktuální stav počasí

Zpráva byla vytvořena před 47 minutami, v 04:00 UTC
Východní vítr 2 kt
Teplota 18°C
Vlhkost vzduchu 88%
Tlak 1020 hPa
Viditelnost 10 km a více
Žádná oblačnost pod 1500 m, nevyskytují se cumulonimby.

METAR: LPBJ 260400Z 10002KT CAVOK 18/16 Q1020

Čas: 05:47 (04:47 UTC)

Předpověď počasí

Zpráva byla vytvořena před 5 hodinami a 33 minutami, v 23:14 UTC
Předpověď platná od 26 v 00 UTC do 26 v 24 UTC
vítr z různých směrů 2 kt
Viditelnost 10 km a více
Žádná oblačnost pod 1500 m, nevyskytují se cumulonimby.
Změna
od 26 v 10 UTC do 26 v 12 UTC
Východní vítr 10 kt
Skoro jasno ve výšce 4000 ft
Změna
od 26 v 20 UTC do 26 v 22 UTC
Jižní vítr 8 kt

TAF: LPBJ 252314Z 2600/2624 VRB02KT CAVOK BECMG 2610/2612 08010KT FEW040 BECMG 2620/2622 19008KT

Stav a předpovědi počasí z více než 4 000 letišť (zprávy METAR a TAF).

Červené a žluté tečky na mapě představují dostupné meteorologické stanice.

Když kurzor umístíte na tečku, zobrazí se název stanice.

Pak kliknutím zobrazíte stav a předpověď počasí.

Chcete-li změnit mapu, kliknutím na zelené tlačítko se znaménkem +mapu přiblížíte, kliknutím na zelené tlačítko se znaménkem – mapu oddálíte a kliknutím na zelené šipky přejdete na sousední mapy.


METAR-TAF: